Share

Guernsey, IA

Dietze Weather Station (KIAMILLE3) Elev 883 ft | 41.57 °N, 92.16 °W | Change Station

Current weather conditions updated 2 seconds ago

Clear
Clear
63.5 °F
Feels Like 63.5 °F
N
1.8
Wind Variable Wind from SSE
Gusts 5.6 mph
Sunrise 6:24 AM
Sunset 7:53 PM
Moon Waning Gibbous

Tomorrow is forecast to be Much Warmer than today.

Pressure 30.25 in
Visibility 10.0 miles
Clouds Clear
Dew Point 34 °F
Humidity 33%
Rainfall 0.00 in
Snow Depth Not available.
UV 6 out of 16
Pollen 10.10 out of 12
Air Quality Not available.
Flu Activity Sporadic
METAR KTNU 182055Z AUTO 14011KT 10SM CLR 16/M01 A3025 RMK AO2

More Conditions Fewer Conditions

Pressure 30.25 in
Visibility 10.0 miles
Clouds Clear
Dew Point 34 °F
Humidity 33%
Rainfall 0.00 in
Snow Depth Not available.
UV 6 out of 16
Pollen 10.10 out of 12
Air Quality Not available.
Flu Activity Sporadic
METAR KTNU 182055Z AUTO 14011KT 10SM CLR 16/M01 A3025 RMK AO2

More Conditions Fewer Conditions

10-Day Weather Forecast

Almanac

Astronomy

Apr. 18, 2014 Rise Set
Actual Time 6:24 AM CDT 7:53 PM CDT
Civil Twilight 5:55 AM CDT 8:22 PM CDT
Nautical Twilight 5:20 AM CDT 8:57 PM CDT
Astronomical Twilight 4:43 AM CDT 9:34 PM CDT
Moon 11:40 PM CDT 8:45 AM CDT
Length of Visible Light 14h 26m
Length of Day
13h 28m
Tomorrow will be 2m 38s longer.
Waning Gibbous, 85% of the Moon is Illuminated
Today
Waning Gibbous
Apr 22
Last Quarter
Apr 29
New
May 6
First Quarter
May 14
Full

Today's Extremes

State Highs State Lows

Community

  • What's for Lunch?
    What's for Lunch?
  • SUNRISE THROUGH THE TREES.
    SUNRISE THROUGH THE TREES.
  • Dog Wood Blossoms
    Dog Wood Blossoms
  • Morning Light
    Morning Light
  • New Day
    New Day

WunderPhotos

Upload Photos

1,702,499 photos uploaded!

WunderBlogs® & News

Nearby

Snow Depth

Station Depth Elevation
No new snow has been reported.

Coastal Water Temperatures

Place Temperature
No Stations Reporting

Earthquake Activity

City Distance Mag. Time & Date
No recent earthquake activity has been reported nearby.
Minimum magnitude displayed is 2.5.

Nearby Weather Stations

Station Location Temp. Dew Point Humidity Wind Precip. Elev Updated Type
Dietze Weather Station, Millersburg, IA 63.5 °F 34 °F 33% SSE  at  1.8 mph 0.00 in / hr 883 ft 4:07 PM CDT Rapid Fire
Williamsburg, IA 66.4 °F 28 °F 24% East  at  5.0 mph 0.00 in / hr 758 ft 4:06 PM CDT Rapid Fire
Grinnell Weather.com, Grinnell, IA 61.0 °F 34 °F 37% ESE  at  4.4 mph 0.00 in / hr 1014 ft 4:07 PM CDT Rapid Fire

Show More Stations Show Fewer Stations

What do you think?

We're not finished. Please let us know what you like, what you don't like, and what you are still missing.